createdAt,value
2017-04-22T06:30:46.855Z,42.27
2017-04-22T06:31:27.418Z,41.88
2017-04-22T06:32:08.042Z,41.97
2017-04-22T06:32:48.619Z,42.17
2017-04-22T06:33:29.199Z,42.29
2017-04-22T06:34:09.777Z,42.19
2017-04-22T06:34:50.606Z,42
2017-04-22T06:35:31.671Z,41.52
2017-04-22T06:36:12.244Z,40.66
2017-04-22T06:36:52.890Z,39.72
2017-04-22T06:37:33.562Z,39.62
2017-04-22T06:38:14.147Z,40.2
2017-04-22T06:38:54.721Z,40.87
2017-04-22T06:39:35.409Z,41.16
2017-04-22T06:40:16.055Z,40.67
2017-04-22T06:40:57.811Z,40
2017-04-22T06:41:37.975Z,39.43
2017-04-22T06:42:18.562Z,38.66
2017-04-22T06:42:59.215Z,37.89
2017-04-22T06:43:39.988Z,37.43
2017-04-22T06:44:20.820Z,35.71
2017-04-22T06:45:01.400Z,35.32
2017-04-22T06:45:42.062Z,34.07
2017-04-22T06:46:23.008Z,35.02
2017-04-22T06:47:03.575Z,35.02
2017-04-22T06:47:44.161Z,36.46
2017-04-22T06:48:24.738Z,35.69
2017-04-22T06:49:05.314Z,35.49
2017-04-22T06:49:45.894Z,35.59
2017-04-22T06:50:26.482Z,36.16
2017-04-22T06:51:07.071Z,36.84
2017-04-22T06:51:47.646Z,37.6
2017-04-22T06:52:28.231Z,35.78
2017-04-22T06:53:08.867Z,36.55
2017-04-22T06:53:49.449Z,36.84
2017-04-22T06:54:30.023Z,37.32
2017-04-22T06:55:10.599Z,35.59
2017-04-22T06:55:51.183Z,34.82
2017-04-22T06:56:31.766Z,36.93
2017-04-22T06:57:12.347Z,37.6
2017-04-22T06:57:52.923Z,38.37
2017-04-22T06:58:33.507Z,38.76
2017-04-22T06:59:14.082Z,38.47
2017-04-22T06:59:54.647Z,38.56
2017-04-22T07:00:35.225Z,38.56
2017-04-22T07:01:15.805Z,38.37
2017-04-22T07:01:56.386Z,38.01
2017-04-22T07:02:36.971Z,38.29
2017-04-22T07:03:17.552Z,38.2
2017-04-22T07:03:58.130Z,38.29
2017-04-22T07:04:38.718Z,38.49
2017-04-22T07:05:19.303Z,37.72
2017-04-22T07:05:59.871Z,37.62
2017-04-22T07:06:40.457Z,37.55
2017-04-22T07:07:21.036Z,37.45
2017-04-22T07:08:01.622Z,37.55
2017-04-22T07:08:42.193Z,37.35
2017-04-22T07:09:22.786Z,37.16
2017-04-22T07:10:03.360Z,37.07
2017-04-22T07:10:43.948Z,37.07
2017-04-22T07:11:24.522Z,36.97
2017-04-22T07:12:05.112Z,35.91
2017-04-22T07:12:45.726Z,36.01
2017-04-22T07:13:26.307Z,35.72
2017-04-22T07:14:06.879Z,34.28
2017-04-22T07:14:47.485Z,33.03
2017-04-22T07:15:28.064Z,32.84
2017-04-22T07:16:08.648Z,35.05
2017-04-22T07:16:49.225Z,35.72
2017-04-22T07:17:29.805Z,33.23
2017-04-22T07:18:10.387Z,35.63
2017-04-22T07:18:51.182Z,33.78
2017-04-22T07:19:31.766Z,33.21
2017-04-22T07:20:12.349Z,32.34
2017-04-22T07:20:53.029Z,32.06
2017-04-22T07:21:33.610Z,32.44
2017-04-22T07:22:14.201Z,33.5
2017-04-22T07:22:54.787Z,34.84
2017-04-22T07:23:35.362Z,34.65
2017-04-22T07:24:15.963Z,34.27
2017-04-22T07:24:56.543Z,33.5
2017-04-22T07:25:37.112Z,35.22
2017-04-22T07:26:17.703Z,34.36
2017-04-22T07:26:58.284Z,33.67
2017-04-22T07:27:38.871Z,35.69
2017-04-22T07:28:19.448Z,35.4
2017-04-22T07:29:00.028Z,35.11
2017-04-22T07:29:40.605Z,34.25
2017-04-22T07:30:21.189Z,35.3
2017-04-22T07:31:01.778Z,35.78
2017-04-22T07:31:42.985Z,36.07
2017-04-22T07:32:23.560Z,36.26
2017-04-22T07:33:04.150Z,36.46
2017-04-22T07:33:44.729Z,37.41
2017-04-22T07:34:25.317Z,37.51
2017-04-22T07:35:05.878Z,37.22
2017-04-22T07:35:46.451Z,36.84
2017-04-22T07:36:27.024Z,35.21
2017-04-22T07:37:07.597Z,34.92
2017-04-22T07:37:49.816Z,33.48
2017-04-22T07:38:30.372Z,34.25
2017-04-22T07:39:10.932Z,35.49
2017-04-22T07:39:51.509Z,36.26
2017-04-22T07:40:32.090Z,37.03
2017-04-22T07:41:12.656Z,36.74
2017-04-22T07:41:53.222Z,34.06
2017-04-22T07:42:33.805Z,35.49
2017-04-22T07:43:14.378Z,36.46
2017-04-22T07:43:54.964Z,36.07
2017-04-22T07:44:35.542Z,35.4
2017-04-22T07:45:16.119Z,35.11
2017-04-22T07:45:56.698Z,35.3
2017-04-22T07:46:37.280Z,35.02
2017-04-22T07:47:17.855Z,34.06
2017-04-22T07:47:58.990Z,34.15
2017-04-22T07:48:39.565Z,33.39
2017-04-22T07:49:20.154Z,35.21
2017-04-22T07:50:00.738Z,36.26
2017-04-22T07:50:41.306Z,36.07
2017-04-22T07:51:21.894Z,36.55
2017-04-22T07:52:02.480Z,34.34
2017-04-22T07:52:43.049Z,34.73
2017-04-22T07:53:23.640Z,35.02
2017-04-22T07:54:04.217Z,35.59
2017-04-22T07:54:44.801Z,34.15
2017-04-22T07:55:25.373Z,35.21
2017-04-22T07:56:05.959Z,35.21
2017-04-22T07:56:46.539Z,34.15
2017-04-22T07:57:27.098Z,35.78
2017-04-22T07:58:07.683Z,35.69
2017-04-22T07:58:48.257Z,34.44
2017-04-22T07:59:28.832Z,34.06
2017-04-22T08:00:09.411Z,34.27
2017-04-22T08:00:49.989Z,34.17
2017-04-22T08:01:30.576Z,34.36
2017-04-22T08:02:11.158Z,33.88
2017-04-22T08:02:51.734Z,35.51
2017-04-22T08:03:32.311Z,35.03
2017-04-22T08:04:12.892Z,34.27
2017-04-22T08:04:53.477Z,34.07
2017-04-22T08:05:34.051Z,34.94
2017-04-22T08:06:14.627Z,34.17
2017-04-22T08:06:55.213Z,33.21
2017-04-22T08:07:35.797Z,34.55
2017-04-22T08:08:16.373Z,34.17
2017-04-22T08:08:56.955Z,33.01
2017-04-22T08:09:37.537Z,33.01
2017-04-22T08:10:18.116Z,34.17
2017-04-22T08:10:58.704Z,35.32
2017-04-22T08:11:39.997Z,34.45
2017-04-22T08:12:20.580Z,34.65
2017-04-22T08:13:01.146Z,34.07
2017-04-22T08:13:41.728Z,33.5
2017-04-22T08:14:22.306Z,33.78
2017-04-22T08:15:02.881Z,34.27
2017-04-22T08:15:43.463Z,34.27
2017-04-22T08:16:24.031Z,33.21
2017-04-22T08:17:04.611Z,33.59
2017-04-22T08:17:45.191Z,33.69
2017-04-22T08:18:25.769Z,34.45
2017-04-22T08:19:06.346Z,34.55
2017-04-22T08:19:46.923Z,35.03
2017-04-22T08:20:27.496Z,35.51
2017-04-22T08:21:08.813Z,35.13
2017-04-22T08:21:49.392Z,34.27
2017-04-22T08:22:29.977Z,34.27
2017-04-22T08:23:10.554Z,33.78
2017-04-22T08:23:51.133Z,33.5
2017-04-22T08:24:31.720Z,32.92
2017-04-22T08:25:12.302Z,33.21
2017-04-22T08:25:52.876Z,34.45
2017-04-22T08:26:33.462Z,34.94
2017-04-22T08:27:14.042Z,33.88
2017-04-22T08:27:54.623Z,33.21
2017-04-22T08:28:35.206Z,33.78
2017-04-22T08:29:15.783Z,34.17
2017-04-22T08:29:56.361Z,33.31
2017-04-22T08:30:36.940Z,32.54
2017-04-22T08:31:17.530Z,32.25
2017-04-22T08:31:58.122Z,33.88
2017-04-22T08:32:38.692Z,34.45
2017-04-22T08:33:19.280Z,35.03
2017-04-22T08:33:59.859Z,35.61
2017-04-22T08:34:40.436Z,34.84
2017-04-22T08:35:21.024Z,35.32
2017-04-22T08:36:01.612Z,33.5
2017-04-22T08:36:42.202Z,35.13
2017-04-22T08:37:22.781Z,34.07
2017-04-22T08:38:03.368Z,35.32
2017-04-22T08:38:43.943Z,35.24
2017-04-22T08:39:24.528Z,34.76
2017-04-22T08:40:05.102Z,34.19
2017-04-22T08:40:45.683Z,33.51
2017-04-22T08:41:26.265Z,33.42
2017-04-22T08:42:06.841Z,32.57
2017-04-22T08:42:47.413Z,32.38
2017-04-22T08:43:27.996Z,31.61
2017-04-22T08:44:08.576Z,31.99
2017-04-22T08:44:49.159Z,31.03
2017-04-22T08:45:29.741Z,30.07
2017-04-22T08:46:10.320Z,30.26
2017-04-22T08:46:50.900Z,31.03
2017-04-22T08:47:31.480Z,30.65
2017-04-22T08:48:12.052Z,30.15
2017-04-22T08:48:52.630Z,30.35
2017-04-22T08:49:33.207Z,30.63
2017-04-22T08:50:13.780Z,31.69
2017-04-22T08:50:54.356Z,32.17
2017-04-22T08:51:34.934Z,31.3
2017-04-22T08:52:15.521Z,30.73
2017-04-22T08:52:56.103Z,31.11
2017-04-22T08:53:36.690Z,31.88
2017-04-22T08:54:17.275Z,32.07
2017-04-22T08:54:57.856Z,31.98
2017-04-22T08:55:38.431Z,33.03
2017-04-22T08:56:19.014Z,32.73
2017-04-22T08:56:59.595Z,32.84
2017-04-22T08:57:40.154Z,32.93
2017-04-22T08:58:20.747Z,34.27
2017-04-22T08:59:01.328Z,33.69
2017-04-22T08:59:41.911Z,34.45
2017-04-22T09:00:22.490Z,34.47
2017-04-22T09:01:03.074Z,34.07
2017-04-22T09:01:43.649Z,33.21
2017-04-22T09:02:24.228Z,33.11
2017-04-22T09:03:04.801Z,32.06
2017-04-22T09:03:45.392Z,34.17
2017-04-22T09:04:25.970Z,35.22
2017-04-22T09:05:06.541Z,35.34
2017-04-22T09:05:47.125Z,35.34
2017-04-22T09:06:27.707Z,34.86
2017-04-22T09:07:08.300Z,32.93
2017-04-22T09:07:48.882Z,33.7
2017-04-22T09:08:29.466Z,35.34
2017-04-22T09:09:10.040Z,35.24
2017-04-22T09:09:50.611Z,32.64
2017-04-22T09:10:31.195Z,32.73
2017-04-22T09:11:11.774Z,32.54
2017-04-22T09:11:52.356Z,33.01
2017-04-22T09:12:32.933Z,33.21
2017-04-22T09:13:13.510Z,33.98
2017-04-22T09:13:54.382Z,35.05
2017-04-22T09:14:34.967Z,35.63
2017-04-22T09:15:15.539Z,35.14
2017-04-22T09:15:56.422Z,33.11
2017-04-22T09:16:37.005Z,33.32
2017-04-22T09:17:17.639Z,33.7
2017-04-22T09:17:58.208Z,33.61
2017-04-22T09:18:38.781Z,33.13
2017-04-22T09:19:19.356Z,33.03
2017-04-22T09:19:59.921Z,33.31
2017-04-22T09:20:40.490Z,32.65
2017-04-22T09:21:21.078Z,32.65
2017-04-22T09:22:01.662Z,33.23
2017-04-22T09:22:42.597Z,34.28
2017-04-22T09:23:23.187Z,34.28
2017-04-22T09:24:03.774Z,34.49
2017-04-22T09:24:44.350Z,34.39
2017-04-22T09:25:24.923Z,32.38
2017-04-22T09:26:05.498Z,32.18
2017-04-22T09:26:46.084Z,32.18
2017-04-22T09:27:26.640Z,32.38
2017-04-22T09:28:07.223Z,31.99
2017-04-22T09:28:47.816Z,32.78
2017-04-22T09:29:28.382Z,32.01
2017-04-22T09:30:08.957Z,31.05
2017-04-22T09:30:49.534Z,31.15
2017-04-22T09:31:30.121Z,31.72
2017-04-22T09:32:10.700Z,32.3
2017-04-22T09:32:51.283Z,33.16
2017-04-22T09:33:31.850Z,32.68
2017-04-22T09:34:12.436Z,31.34
2017-04-22T09:34:53.029Z,32.2
2017-04-22T09:35:33.757Z,31.72
2017-04-22T09:36:14.325Z,30.76
2017-04-22T09:36:54.897Z,31.15
2017-04-22T09:37:35.479Z,31.53
2017-04-22T09:38:16.045Z,31.82
2017-04-22T09:38:56.615Z,32.68
2017-04-22T09:39:37.185Z,32.49
2017-04-22T09:40:17.764Z,31.34
2017-04-22T09:40:58.342Z,31.92
2017-04-22T09:41:38.920Z,31.43
2017-04-22T09:42:19.490Z,32.01
2017-04-22T09:43:00.064Z,32.68
2017-04-22T09:43:40.644Z,32.97
2017-04-22T09:44:21.232Z,32.39
2017-04-22T09:45:01.819Z,32.59
2017-04-22T09:45:42.382Z,33.07
2017-04-22T09:46:22.958Z,31.72
2017-04-22T09:47:03.547Z,32.68
2017-04-22T09:47:44.124Z,32.1
2017-04-22T09:48:24.683Z,31.24
2017-04-22T09:49:05.280Z,31.72
2017-04-22T09:49:45.855Z,32.39
2017-04-22T09:50:26.430Z,32.3
2017-04-22T09:51:07.007Z,32.39
2017-04-22T09:51:47.581Z,31.92
2017-04-22T09:52:28.167Z,31.82
2017-04-22T09:53:08.735Z,31.72
2017-04-22T09:53:49.310Z,32.3
2017-04-22T09:54:29.898Z,32.68
2017-04-22T09:55:10.723Z,32.78
2017-04-22T09:55:51.427Z,32.39
2017-04-22T09:56:32.002Z,32.39
2017-04-22T09:57:12.585Z,31.82
2017-04-22T09:57:53.161Z,32.1
2017-04-22T09:58:33.949Z,32.39
2017-04-22T09:59:14.662Z,32.39
2017-04-22T09:59:55.240Z,32.68
2017-04-22T10:00:35.820Z,32.39
2017-04-22T10:01:16.396Z,33.16
2017-04-22T10:01:57.154Z,32.68
2017-04-22T10:02:38.023Z,32.49
2017-04-22T10:03:19.068Z,32.49
2017-04-22T10:03:59.999Z,33.07
2017-04-22T10:04:40.715Z,32.3
2017-04-22T10:05:21.293Z,32.76
2017-04-22T10:06:01.869Z,33.26
2017-04-22T10:06:42.450Z,32.49
2017-04-22T10:07:23.033Z,32.18
2017-04-22T10:08:03.625Z,32.68
2017-04-22T10:08:44.199Z,32.68
2017-04-22T10:09:24.777Z,33.84
2017-04-22T10:10:05.367Z,32.87
2017-04-22T10:10:45.942Z,33.26
2017-04-22T10:11:26.663Z,33.45
2017-04-22T10:12:07.475Z,33.54
2017-04-22T10:12:48.044Z,32.49
2017-04-22T10:13:28.632Z,32.49
2017-04-22T10:14:09.207Z,32.59
2017-04-22T10:14:49.786Z,32.1
2017-04-22T10:15:30.359Z,32.2
2017-04-22T10:16:10.953Z,32.01
2017-04-22T10:16:51.515Z,32.01
2017-04-22T10:17:32.094Z,32.39
2017-04-22T10:18:12.686Z,31.92
2017-04-22T10:18:53.276Z,32.39
2017-04-22T10:19:33.892Z,33.07
2017-04-22T10:20:14.466Z,33.16
2017-04-22T10:20:55.046Z,32.39
2017-04-22T10:21:35.893Z,32.59
2017-04-22T10:22:16.752Z,32.79
2017-04-22T10:22:57.942Z,32.51
2017-04-22T10:23:38.714Z,31.74
2017-04-22T10:24:19.691Z,31.83
2017-04-22T10:25:00.469Z,32.12
2017-04-22T10:25:41.536Z,31.83
2017-04-22T10:26:22.571Z,31.54
2017-04-22T10:27:03.292Z,31.64
2017-04-22T10:27:44.075Z,32.03
2017-04-22T10:28:24.933Z,32.31
2017-04-22T10:29:05.487Z,32.03
2017-04-22T10:29:46.444Z,32.03
2017-04-22T10:30:27.446Z,31.56
2017-04-22T10:31:08.253Z,31.85
2017-04-22T10:31:49.562Z,31.85
2017-04-22T10:32:30.460Z,31.56
2017-04-22T10:33:11.276Z,31.65
2017-04-22T10:33:51.980Z,31.27
2017-04-22T10:34:32.774Z,31.95
2017-04-22T10:35:13.698Z,31.65
2017-04-22T10:35:54.385Z,31.18
2017-04-22T10:36:35.428Z,31.18
2017-04-22T10:37:16.382Z,30.88
2017-04-22T10:37:57.246Z,30.6
2017-04-22T10:38:37.830Z,30.4
2017-04-22T10:39:18.837Z,30.69
2017-04-22T10:39:59.578Z,31.08
2017-04-22T10:40:40.363Z,31.57
2017-04-22T10:41:21.226Z,31.29
2017-04-22T10:42:01.797Z,30.61
2017-04-22T10:42:42.383Z,30.32
2017-04-22T10:43:22.968Z,30.13
2017-04-22T10:44:03.835Z,29.94
2017-04-22T10:44:44.669Z,30.22
2017-04-22T10:45:25.573Z,30.22
2017-04-22T10:46:06.439Z,29.86
2017-04-22T10:46:47.586Z,29.65
2017-04-22T10:47:28.355Z,29.08
2017-04-22T10:48:08.961Z,29.57
2017-04-22T10:48:49.526Z,29.47
2017-04-22T10:49:30.109Z,29.55
2017-04-22T10:50:10.695Z,30.05
2017-04-22T10:50:51.277Z,30.15
2017-04-22T10:51:32.129Z,30.15
2017-04-22T10:52:12.709Z,29.95
2017-04-22T10:52:53.456Z,29.38
2017-04-22T10:53:34.326Z,28.99
2017-04-22T10:54:14.917Z,28.99
2017-04-22T10:54:55.500Z,28.8
2017-04-22T10:55:36.089Z,29.28
2017-04-22T10:56:17.278Z,29.28
2017-04-22T10:56:58.127Z,29.18
2017-04-22T10:57:38.820Z,29.95
2017-04-22T10:58:19.525Z,30.73
2017-04-22T10:59:00.226Z,31.3
2017-04-22T10:59:40.930Z,31.78
2017-04-22T11:00:21.692Z,31.69
2017-04-22T11:01:02.505Z,31.78
2017-04-22T11:01:43.449Z,31.88
2017-04-22T11:02:24.034Z,31.9
2017-04-22T11:03:05.002Z,31.6
2017-04-22T11:03:45.581Z,31.41
2017-04-22T11:04:26.218Z,31.32
2017-04-22T11:05:07.473Z,31.6
2017-04-22T11:05:48.248Z,31.41
2017-04-22T11:06:28.969Z,31.41
2017-04-22T11:07:09.767Z,31.24
2017-04-22T11:07:50.718Z,31.14
2017-04-22T11:08:31.862Z,31.24
2017-04-22T11:09:12.933Z,30.85
2017-04-22T11:09:53.585Z,30.87
2017-04-22T11:10:34.264Z,30.96
2017-04-22T11:11:14.883Z,30.87
2017-04-22T11:11:55.511Z,30.77
2017-04-22T11:12:36.514Z,30.96
2017-04-22T11:13:17.559Z,30.96
2017-04-22T11:13:58.498Z,30.87
2017-04-22T11:14:39.557Z,30.77
2017-04-22T11:15:20.333Z,30.87
2017-04-22T11:16:01.197Z,30.96
2017-04-22T11:16:42.226Z,30.77
2017-04-22T11:17:23.201Z,30.87
2017-04-22T11:18:04.208Z,30.87
2017-04-22T11:18:45.272Z,30.96
2017-04-22T11:19:25.991Z,30.96
2017-04-22T11:20:06.987Z,31.07
2017-04-22T11:20:47.993Z,31.27
2017-04-22T11:21:29.025Z,31.06
2017-04-22T11:22:10.103Z,31.15
2017-04-22T11:22:50.758Z,31.17
2017-04-22T11:23:31.589Z,31.07
2017-04-22T11:24:12.513Z,31.17
2017-04-22T11:24:53.245Z,31.27
2017-04-22T11:25:34.077Z,31.37
2017-04-22T11:26:14.738Z,31.07
2017-04-22T11:26:55.650Z,31.17
2017-04-22T11:27:36.311Z,31.07
2017-04-22T11:28:16.904Z,31.17
2017-04-22T11:28:57.733Z,31.17
2017-04-22T11:29:38.376Z,31.17
2017-04-22T11:30:19.337Z,31.27
2017-04-22T11:31:00.105Z,31.46
2017-04-22T11:31:40.697Z,31.37
2017-04-22T11:32:21.280Z,31.46
2017-04-22T11:33:02.380Z,31.37
2017-04-22T11:33:42.960Z,31.37
2017-04-22T11:34:23.545Z,31.56
2017-04-22T11:35:04.846Z,31.65
2017-04-22T11:35:45.474Z,31.75
2017-04-22T11:36:26.461Z,31.75
2017-04-22T11:37:07.432Z,32.14
2017-04-22T11:37:47.946Z,32.43
2017-04-22T11:38:28.536Z,32.62
2017-04-22T11:39:09.108Z,32.62
2017-04-22T11:39:49.698Z,32.04
2017-04-22T11:40:30.273Z,31.46
2017-04-22T11:41:10.860Z,31.27
2017-04-22T11:41:51.472Z,31.17
2017-04-22T11:42:32.051Z,31.46
2017-04-22T11:43:12.790Z,31.37
2017-04-22T11:43:53.375Z,31.56
2017-04-22T11:44:34.207Z,31.46
2017-04-22T11:45:15.126Z,31.56
2017-04-22T11:45:55.886Z,31.65
2017-04-22T11:46:36.705Z,31.65
2017-04-22T11:47:17.452Z,31.65
2017-04-22T11:47:58.155Z,31.65
2017-04-22T11:48:38.988Z,31.65
2017-04-22T11:49:19.831Z,31.85
2017-04-22T11:50:01.151Z,31.85
2017-04-22T11:50:41.734Z,31.65
2017-04-22T11:51:22.791Z,31.75
2017-04-22T11:52:03.378Z,31.65
2017-04-22T11:52:43.968Z,31.75
2017-04-22T11:53:24.546Z,31.67
2017-04-22T11:54:05.390Z,31.76
2017-04-22T11:54:46.026Z,31.67
2017-04-22T11:55:26.596Z,31.67
2017-04-22T11:56:07.183Z,31.67
2017-04-22T11:56:47.789Z,31.76
2017-04-22T11:57:28.356Z,31.76
2017-04-22T11:58:08.947Z,31.67
2017-04-22T11:58:49.541Z,31.48
2017-04-22T11:59:30.105Z,31.67
2017-04-22T12:00:10.700Z,31.57
2017-04-22T12:00:51.279Z,31.57
2017-04-22T12:01:31.870Z,31.67
2017-04-22T12:02:12.458Z,31.76
2017-04-22T12:02:53.048Z,31.57
2017-04-22T12:03:33.627Z,31.67
2017-04-22T12:04:14.209Z,31.96
2017-04-22T12:04:54.787Z,31.65
2017-04-22T12:05:35.458Z,32.06
2017-04-22T12:06:16.022Z,31.65
2017-04-22T12:06:56.609Z,31.56
2017-04-22T12:07:37.207Z,31.56
2017-04-22T12:08:17.788Z,31.65
2017-04-22T12:08:58.407Z,31.65
2017-04-22T12:09:38.990Z,31.75
2017-04-22T12:10:19.655Z,31.75
2017-04-22T12:11:00.248Z,31.75
2017-04-22T12:11:40.838Z,31.65
2017-04-22T12:12:21.418Z,31.56
2017-04-22T12:13:02.007Z,31.48
2017-04-22T12:13:42.586Z,31.38
2017-04-22T12:14:23.172Z,31.28
2017-04-22T12:15:03.846Z,31.28
2017-04-22T12:15:44.431Z,31.28
2017-04-22T12:16:25.014Z,31.18
2017-04-22T12:17:05.629Z,31.09
2017-04-22T12:17:46.208Z,30.99
2017-04-22T12:18:26.780Z,30.99
2017-04-22T12:19:07.372Z,30.99
2017-04-22T12:19:47.960Z,30.9
2017-04-22T12:20:28.540Z,30.9
2017-04-22T12:21:09.127Z,30.82
2017-04-22T12:21:49.710Z,30.62
2017-04-22T12:22:30.507Z,30.52
2017-04-22T12:23:11.098Z,30.52
2017-04-22T12:23:51.689Z,30.04
2017-04-22T12:24:32.270Z,30.43
2017-04-22T12:25:12.849Z,30.43
2017-04-22T12:25:53.439Z,30.33
2017-04-22T12:26:34.031Z,30.43
2017-04-22T12:27:14.612Z,30.24
2017-04-22T12:27:55.199Z,30.33
2017-04-22T12:28:35.788Z,30.24
2017-04-22T12:29:16.377Z,30.24
2017-04-22T12:29:56.961Z,30.24
2017-04-22T12:30:37.552Z,30.33
2017-04-22T12:31:18.134Z,30.24
2017-04-22T12:31:58.720Z,30.24
2017-04-22T12:32:39.295Z,30.24
2017-04-22T12:33:19.883Z,30.43
2017-04-22T12:34:00.463Z,30.43
2017-04-22T12:34:41.054Z,30.14
2017-04-22T12:35:21.633Z,30.33
2017-04-22T12:36:02.221Z,30.43
2017-04-22T12:36:42.807Z,30.43
2017-04-22T12:37:23.382Z,30.33
2017-04-22T12:38:03.966Z,30.52
2017-04-22T12:38:44.548Z,30.62
2017-04-22T12:39:25.136Z,30.61
2017-04-22T12:40:05.718Z,30.52
2017-04-22T12:40:46.306Z,30.51
2017-04-22T12:41:26.892Z,30.51
2017-04-22T12:42:07.478Z,30.52
2017-04-22T12:42:48.057Z,30.52
2017-04-22T12:43:28.635Z,30.41
2017-04-22T12:44:09.224Z,30.7
2017-04-22T12:44:49.805Z,30.7
2017-04-22T12:45:30.396Z,30.61
2017-04-22T12:46:10.981Z,30.7
2017-04-22T12:46:51.564Z,30.8
2017-04-22T12:47:32.145Z,30.7
2017-04-22T12:48:12.737Z,30.72
2017-04-22T12:48:53.320Z,30.41
2017-04-22T12:49:33.909Z,30.52
2017-04-22T12:50:14.490Z,30.72
2017-04-22T12:50:55.074Z,30.62
2017-04-22T12:51:35.660Z,30.62
2017-04-22T12:52:16.245Z,30.33
2017-04-22T12:52:56.831Z,30.43
2017-04-22T12:53:37.426Z,30.43
2017-04-22T12:54:18.009Z,30.24
2017-04-22T12:54:58.571Z,30.14
2017-04-22T12:55:39.159Z,30.24
2017-04-22T12:56:19.747Z,30.14
2017-04-22T12:57:00.326Z,29.94
2017-04-22T12:57:40.974Z,30.04
2017-04-22T12:58:21.548Z,30.14
2017-04-22T12:59:02.131Z,30.04
2017-04-22T12:59:42.710Z,30.14
2017-04-22T13:00:23.304Z,30.14
2017-04-22T13:01:03.903Z,29.96
2017-04-22T13:01:44.488Z,30.24
2017-04-22T13:02:25.066Z,29.85
2017-04-22T13:03:05.668Z,29.96
2017-04-22T13:03:46.252Z,30.15
2017-04-22T13:04:26.831Z,29.86
2017-04-22T13:05:07.423Z,30.05
2017-04-22T13:05:48.008Z,30.15
2017-04-22T13:06:28.594Z,29.86
2017-04-22T13:07:09.179Z,30.15
2017-04-22T13:07:49.766Z,30.54
2017-04-22T13:08:30.350Z,30.14
2017-04-22T13:09:10.932Z,29.94
2017-04-22T13:09:51.539Z,30.14
2017-04-22T13:10:32.105Z,30.24
2017-04-22T13:11:12.719Z,30.14
2017-04-22T13:11:53.305Z,30.52
2017-04-22T13:12:33.886Z,30.24
2017-04-22T13:13:14.466Z,30.24
2017-04-22T13:13:55.051Z,30.43
2017-04-22T13:14:35.631Z,30.14
2017-04-22T13:15:17.141Z,30.25
2017-04-22T13:15:58.201Z,30.33
2017-04-22T13:16:38.801Z,30.14
2017-04-22T13:17:19.622Z,30.14
2017-04-22T13:18:00.208Z,30.33
2017-04-22T13:18:40.796Z,30.35
2017-04-22T13:19:21.377Z,30.73
2017-04-22T13:20:02.240Z,30.44
2017-04-22T13:20:42.958Z,30.54
2017-04-22T13:21:23.625Z,30.24
2017-04-22T13:22:04.417Z,30.15
2017-04-22T13:22:45.002Z,30.25
2017-04-22T13:23:25.810Z,30.14
2017-04-22T13:24:06.397Z,30.52
2017-04-22T13:24:47.184Z,30.43
2017-04-22T13:25:27.767Z,30.33
2017-04-22T13:26:08.359Z,30.43
2017-04-22T13:26:49.027Z,30.52
2017-04-22T13:27:29.628Z,30.52
2017-04-22T13:28:10.270Z,30.52
2017-04-22T13:28:50.856Z,30.52
2017-04-22T13:29:31.439Z,30.62
2017-04-22T13:30:12.248Z,30.52
2017-04-22T13:30:53.085Z,30.91
2017-04-22T13:31:33.665Z,30.91
2017-04-22T13:32:14.256Z,30.72
2017-04-22T13:32:54.846Z,30.72
2017-04-22T13:33:35.427Z,30.43
2017-04-22T13:34:16.068Z,30.82
2017-04-22T13:34:56.710Z,30.72
2017-04-22T13:35:37.441Z,30.72
2017-04-22T13:36:18.298Z,30.52
2017-04-22T13:36:58.876Z,30.72
2017-04-22T13:37:39.550Z,30.72
2017-04-22T13:38:20.134Z,30.72
2017-04-22T13:39:00.763Z,30.72
2017-04-22T13:39:41.351Z,30.72
2017-04-22T13:40:21.932Z,30.82
2017-04-22T13:41:02.519Z,30.72
2017-04-22T13:41:43.098Z,30.91
2017-04-22T13:42:23.697Z,30.72
2017-04-22T13:43:04.512Z,30.52
2017-04-22T13:43:45.097Z,30.52
2017-04-22T13:44:25.913Z,30.91
2017-04-22T13:45:06.502Z,30.91
2017-04-22T13:45:47.084Z,30.82
2017-04-22T13:46:27.668Z,30.91
2017-04-22T13:47:08.256Z,30.91
2017-04-22T13:47:48.841Z,30.72
2017-04-22T13:48:29.420Z,30.72
2017-04-22T13:49:10.004Z,30.82
2017-04-22T13:49:50.591Z,31.01
2017-04-22T13:50:31.178Z,31.01
2017-04-22T13:51:11.759Z,31.2
2017-04-22T13:51:52.340Z,31.3
2017-04-22T13:52:32.933Z,31.01
2017-04-22T13:53:13.515Z,31.01
2017-04-22T13:53:54.103Z,31.18
2017-04-22T13:54:34.682Z,31.38
2017-04-22T13:55:15.268Z,31.28
2017-04-22T13:55:55.853Z,31.28
2017-04-22T13:56:36.437Z,31.18
2017-04-22T13:57:17.017Z,31.38
2017-04-22T13:57:57.599Z,31.38
2017-04-22T13:58:38.182Z,31.57
2017-04-22T13:59:18.767Z,31.48
2017-04-22T13:59:59.354Z,31.67
2017-04-22T14:00:39.939Z,31.56
2017-04-22T14:01:20.525Z,32.04
2017-04-22T14:02:01.111Z,31.65
2017-04-22T14:02:41.699Z,31.94
2017-04-22T14:03:22.287Z,31.94
2017-04-22T14:04:02.879Z,32.23
2017-04-22T14:04:43.454Z,32.14
2017-04-22T14:05:24.040Z,32.33
2017-04-22T14:06:04.625Z,32.33
2017-04-22T14:06:45.214Z,32.52
2017-04-22T14:07:25.801Z,32.62
2017-04-22T14:08:06.384Z,32.6
2017-04-22T14:08:46.976Z,32.6
2017-04-22T14:09:27.559Z,32.71
2017-04-22T14:10:08.149Z,32.79
2017-04-22T14:10:48.737Z,32.51
2017-04-22T14:11:29.322Z,32.31
2017-04-22T14:12:09.913Z,32.51
2017-04-22T14:12:50.501Z,32.79
2017-04-22T14:13:31.088Z,33.09
2017-04-22T14:14:11.672Z,32.89
2017-04-22T14:14:52.263Z,33.09
2017-04-22T14:15:32.846Z,33.37
2017-04-22T14:16:13.416Z,33.18
2017-04-22T14:16:54.009Z,33.28
2017-04-22T14:17:34.598Z,33.28
2017-04-22T14:18:15.182Z,33.18
2017-04-22T14:18:55.768Z,33.09
2017-04-22T14:19:36.342Z,33.09
2017-04-22T14:20:16.922Z,32.99
2017-04-22T14:20:57.508Z,32.99
2017-04-22T14:21:38.090Z,32.99
2017-04-22T14:22:18.674Z,32.89
2017-04-22T14:22:59.261Z,32.89
2017-04-22T14:23:39.852Z,32.89
2017-04-22T14:24:20.438Z,33.09
2017-04-22T14:25:01.016Z,32.97
2017-04-22T14:25:41.602Z,32.89
2017-04-22T14:26:22.191Z,33.47
2017-04-22T14:27:02.769Z,33.47
2017-04-22T14:27:43.361Z,32.99
2017-04-22T14:28:23.945Z,33.47
2017-04-22T14:29:04.534Z,33.37
2017-04-22T14:29:45.119Z,33.47
2017-04-22T14:30:25.701Z,33.37
2017-04-22T14:31:06.291Z,33.37
2017-04-22T14:31:46.880Z,33.36
2017-04-22T14:32:27.463Z,33.45
2017-04-22T14:33:08.049Z,33.65
2017-04-22T14:33:48.630Z,33.55
2017-04-22T14:34:29.219Z,33.65
2017-04-22T14:35:09.805Z,33.55
2017-04-22T14:35:50.387Z,33.55
2017-04-22T14:36:30.971Z,33.84
2017-04-22T14:37:11.564Z,33.65
2017-04-22T14:37:52.153Z,33.65
2017-04-22T14:38:32.731Z,33.74
2017-04-22T14:39:13.317Z,33.84
2017-04-22T14:39:53.889Z,33.65
2017-04-22T14:40:34.472Z,33.65
2017-04-22T14:41:15.057Z,33.65
2017-04-22T14:41:55.642Z,33.94
2017-04-22T14:42:36.226Z,33.65
2017-04-22T14:43:16.811Z,33.55
2017-04-22T14:43:57.389Z,33.65
2017-04-22T14:44:37.965Z,33.55
2017-04-22T14:45:18.861Z,34.03
2017-04-22T14:45:59.712Z,34.61
2017-04-22T14:46:40.535Z,34.22
2017-04-22T14:47:21.118Z,34.22
2017-04-22T14:48:01.703Z,34.32
2017-04-22T14:48:42.276Z,34.22
2017-04-22T14:49:22.859Z,34.22
2017-04-22T14:50:03.439Z,34.61
2017-04-22T14:50:44.024Z,34.42
2017-04-22T14:51:25.098Z,34.7
2017-04-22T14:52:05.832Z,34.52
2017-04-22T14:52:46.417Z,34.8
2017-04-22T14:53:26.993Z,34.8
2017-04-22T14:54:08.123Z,35.19
2017-04-22T14:54:49.008Z,35.1
2017-04-22T14:55:30.035Z,35.48
2017-04-22T14:56:10.639Z,35.19
2017-04-22T14:56:51.207Z,35.48
2017-04-22T14:57:31.979Z,35.58
2017-04-22T14:58:12.749Z,35.86
2017-04-22T14:58:53.470Z,35.67
2017-04-22T14:59:34.251Z,35.67
2017-04-22T15:00:15.055Z,35.77
2017-04-22T15:00:55.743Z,35.67
2017-04-22T15:01:36.336Z,35.96
2017-04-22T15:02:17.088Z,35.85
2017-04-22T15:02:57.672Z,36.04
2017-04-22T15:03:38.796Z,36.33
2017-04-22T15:04:19.382Z,36.43
2017-04-22T15:05:00.217Z,36.33
2017-04-22T15:05:40.809Z,36.52
2017-04-22T15:06:21.392Z,36.61
2017-04-22T15:07:01.977Z,36.91
2017-04-22T15:07:42.566Z,37.01
2017-04-22T15:08:23.144Z,37.01
2017-04-22T15:09:03.732Z,37.19
2017-04-22T15:09:44.317Z,37.19
2017-04-22T15:10:24.905Z,37.19
2017-04-22T15:11:05.491Z,37.39
2017-04-22T15:11:46.072Z,37.48
2017-04-22T15:12:26.653Z,37.58
2017-04-22T15:13:07.231Z,37.48
2017-04-22T15:13:47.817Z,37.39
2017-04-22T15:14:28.406Z,37.68
2017-04-22T15:15:08.983Z,37.66